Weather observations for the past three days for
Crockett, Houston County Airport
Metric (Imperial)
Date Time (cdt) Wind (kph) Vis. (km) Weather Sky Cond. Temperature (ºC) Relative Humidity Wind Chill (°C) Heat Index (°C) Pressure Precipitation (cm)
Air Dwpt 6 hour altimeter (cm) sea level (mb) 1 hr 3 hr 6 hr
Max. Min.
05 20:15 S 11 G 20 16.09 Fair CLR 26 22 79% 28 75.46 0.0
05 19:55 S 13 G 24 16.09 Fair CLR 26 22 79% 28 75.46 0.0
05 19:35 S 13 16.09 Fair CLR 27 22 74% 29 75.46 0.0
05 19:15 Vrbl 9 16.09 Fair CLR 27 22 74% 29 75.44 0.0
05 18:55 S 15 16.09 Fair CLR 27 22 74% 29 75.41 0.0
05 18:35 S 17 16.09 Fair CLR 28 22 70% 31 75.44 0.0
05 18:15 S 13 16.09 Fair CLR 28 22 70% 31 75.41 0.0
05 17:55 S 19 G 31 16.09 Fair CLR 29 22 66% 32 75.41 0.0
05 17:35 S 24 G 35 16.09 Fair CLR 29 22 66% 32 75.44 0.0
05 17:15 S 17 G 30 16.09 Fair CLR 29 22 66% 32 75.44 0.0
05 16:55 S 22 16.09 Fair CLR 30 22 62% 33 75.44 0.0
05 16:35 S 22 G 33 16.09 Fair CLR 29 22 66% 32 75.46 0.0
05 16:15 S 17 G 30 16.09 Fair CLR 29 22 66% 32 75.44 0.0
05 15:55 S 17 G 30 16.09 Fair CLR 29 22 66% 32 75.49 0.0
05 15:35 S 20 G 37 16.09 Fair CLR 29 22 66% 32 75.51 0.0
05 15:15 S 17 G 26 16.09 Fair CLR 29 23 70% 33 75.54 0.0
05 14:55 S 20 16.09 Fair CLR 29 23 70% 33 75.54 0.0
05 14:35 S 19 G 33 16.09 Fair CLR 29 23 70% 33 75.57 0.0
05 14:15 S 19 16.09 Fair CLR 28 23 74% 31 75.57 0.0
05 13:55 S 22 G 35 16.09 Fair CLR 28 22 70% 31 75.57 0.0
05 13:35 S 22 G 37 16.09 Fair CLR 28 22 70% 31 75.59 0.0
05 13:15 S 22 G 33 16.09 A Few Clouds FEW025 27 22 74% 29 75.62 0.0
05 12:55 S 22 G 31 16.09 A Few Clouds FEW024 27 22 74% 29 75.62 0.0
05 12:35 S 20 16.09 Fair CLR 27 22 74% 29 75.62 0.0
05 12:15 S 17 G 33 16.09 A Few Clouds FEW020 26 22 79% 28 75.64 0.0
05 11:55 S 17 G 28 16.09 Fair CLR 26 22 79% 28 75.67 0.0
05 11:35 S 11 G 22 16.09 A Few Clouds FEW019 25 22 83% 26 75.67 0.0
05 11:15 S 15 16.09 A Few Clouds FEW018 25 22 83% 26 75.67 0.0
05 10:35 S 13 G 24 16.09 Partly Cloudy SCT017 24 22 89% 24 75.67 0.0
05 10:15 S 15 G 26 16.09 Partly Cloudy SCT015 24 22 89% 24 75.64 0.0
05 09:55 Vrbl 11 G 24 16.09 Mostly Cloudy BKN016 23 21 89% 75.64 0.0
05 09:35 S 13 16.09 Mostly Cloudy BKN016 23 21 89% 75.67 0.0
05 09:15 S 15 16.09 Mostly Cloudy BKN015 23 21 89% 75.64 0.0
05 08:55 S 13 16.09 Partly Cloudy SCT016 SCT020 23 21 89% 75.64 0.0
05 08:35 S 9 16.09 Mostly Cloudy BKN017 BKN021 21 21 100% 75.64 0.0
05 08:15 S 9 16.09 Mostly Cloudy SCT014 BKN021 21 21 100% 75.64 0.0
05 07:55 S 11 16.09 Mostly Cloudy SCT014 BKN020 BKN026 21 21 100% 75.64 0.0
05 07:35 S 9 16.09 Mostly Cloudy BKN015 BKN019 BKN025 20 20 100% 75.64 0.0
05 07:15 S 9 16.09 Overcast BKN014 OVC025 20 20 100% 75.59 0.0
05 06:55 S 11 16.09 Overcast FEW014 BKN023 OVC028 20 20 100% 75.57 0.0
05 06:35 S 9 16.09 Overcast BKN016 BKN022 OVC026 20 20 100% 75.59 0.0
05 06:15 S 11 16.09 Overcast BKN016 OVC022 20 20 100% 75.59 0.0
05 05:35 S 13 16.09 Overcast OVC018 19 19 100% 75.57 0.0
05 05:15 S 13 16.09 Overcast BKN016 OVC021 19 19 100% 75.57 0.0
05 04:55 S 11 16.09 Overcast OVC020 19 19 100% 75.57 0.0
05 04:35 S 11 16.09 Overcast OVC017 19 19 100% 75.57 0.0
05 04:15 SE 11 16.09 Overcast OVC017 19 19 100% 75.59 0.0
05 03:55 S 9 16.09 Overcast OVC018 19 19 100% 75.62 0.0
05 03:35 S 9 16.09 Overcast OVC018 19 19 100% 75.62 0.0
05 03:15 S 9 16.09 Overcast OVC019 19 19 100% 75.64 0.0
05 02:55 S 7 16.09 Overcast OVC019 19 19 100% 75.67 0.0
05 02:35 S 7 16.09 Mostly Cloudy BKN021 19 19 100% 75.67 0.0
05 02:15 S 9 16.09 Fair CLR 19 19 100% 75.69 0.0
05 01:55 S 11 16.09 Fair CLR 19 19 100% 75.69 0.0
05 01:35 S 11 16.09 A Few Clouds FEW029 19 19 100% 75.72 0.0
05 01:15 S 9 16.09 Fair CLR 20 18 88% 75.72 0.0
05 00:55 Vrbl 11 16.09 Fair CLR 20 18 88% 75.72 0.0
05 00:35 S 11 16.09 Fair CLR 20 18 88% 75.72 0.0
05 00:15 S 15 16.09 Fair CLR 20 18 88% 75.72 0.0
04 23:55 S 13 16.09 Fair CLR 20 18 88% 75.72 0.0
04 23:35 S 15 16.09 Fair CLR 21 18 83% 75.72 0.0
04 23:15 S 15 G 26 16.09 Fair CLR 21 18 83% 75.74 0.0
04 22:55 SE 15 16.09 Fair CLR 21 18 83% 75.72 0.0
04 22:35 S 15 16.09 Fair CLR 21 18 83% 75.74 0.0
04 22:15 SE 13 G 22 16.09 Fair CLR 21 18 83% 75.72 0.0
04 21:55 SE 11 16.09 Fair CLR 21 18 83% 75.74 0.0
04 21:35 SE 11 16.09 Fair CLR 22 18 78% 75.72 0.0
04 21:15 Vrbl 11 16.09 Fair CLR 22 18 78% 75.72 0.0
04 20:55 S 13 16.09 Fair CLR 22 18 78% 75.72 0.0
04 20:35 SE 17 16.09 Partly Cloudy SCT046 23 18 74% 75.69 0.0
04 20:15 SE 11 16.09 Partly Cloudy SCT046 23 18 74% 75.69 0.0
04 19:55 SE 9 16.09 Fair CLR 23 17 69% 75.67 0.0
04 19:35 S 11 16.09 Fair CLR 24 17 65% 25 75.67 0.0
04 19:15 S 7 16.09 Fair CLR 25 17 61% 26 75.69 0.0
04 18:55 S 13 16.09 Fair CLR 25 17 61% 26 75.69 0.0
04 18:35 S 13 16.09 Fair CLR 25 17 61% 26 75.72 0.0
04 18:15 S 17 16.09 Fair CLR 26 16 54% 27 75.72 0.0
04 17:55 S 19 16.09 Fair CLR 26 16 54% 27 75.74 0.0
04 17:35 S 19 2.41 Fair with Haze CLR 26 16 54% 27 75.74 0.0
04 17:15 S 19 G 28 16.09 Fair CLR 27 16 51% 27 75.77 0.0
04 16:55 S 19 G 31 16.09 Fair CLR 27 15 48% 27 75.77 0.0
04 16:35 S 17 G 33 16.09 Fair CLR 27 15 48% 27 75.79 0.0
04 16:15 S 22 16.09 Fair CLR 27 15 48% 27 75.82 0.0
04 15:55 S 13 G 33 16.09 Fair CLR 27 15 48% 27 75.84 0.0
04 15:35 S 22 16.09 Fair CLR 27 15 48% 27 75.87 0.0
04 15:15 S 17 G 30 16.09 Fair CLR 27 14 45% 27 75.9 0.0
04 14:55 SW 15 16.09 Fair CLR 27 15 48% 27 75.95 0.0
04 14:35 S 20 16.09 Fair CLR 27 14 45% 27 75.95 0.0
04 14:15 S 17 G 28 16.09 Fair CLR 27 14 45% 27 75.97 0.0
04 13:55 S 19 G 30 16.09 Fair CLR 26 14 48% 26 76 0.0
04 13:35 S 17 G 30 16.09 Fair CLR 26 13 45% 26 76.02 0.0
04 13:15 S 17 G 30 16.09 Fair CLR 26 13 45% 26 76.05 0.0
04 12:55 S 19 G 30 16.09 Fair CLR 25 12 44% 26 76.07 0.0
04 12:35 S 19 G 31 16.09 Fair CLR 25 12 44% 26 76.1 0.0
04 12:15 SE 20 16.09 Fair CLR 25 12 44% 26 76.1 0.0
04 11:55 S 15 G 31 16.09 Fair CLR 24 11 44% 25 76.12 0.0
04 11:35 S 22 16.09 Fair CLR 24 11 44% 25 76.12 0.0
04 11:15 S 22 16.09 Fair CLR 23 12 50% 76.15 0.0
04 10:55 S 22 16.09 Fair CLR 23 12 50% 76.15 0.0
04 10:35 S 19 16.09 Fair CLR 22 13 57% 76.2 0.0
04 10:15 S 17 G 26 16.09 Fair CLR 21 13 60% 76.2 0.0
04 09:55 S 17 G 28 16.09 Fair CLR 21 13 60% 76.2 0.0
04 09:35 S 13 G 24 16.09 Fair CLR 20 13 64% 76.2 0.0
04 09:15 S 13 16.09 Fair CLR 19 13 68% 76.2 0.0
04 08:55 S 13 16.09 Fair CLR 18 13 73% 76.23 0.0
04 08:35 S 9 16.09 Fair CLR 17 13 77% 76.2 0.0
04 08:15 SE 9 16.09 Fair CLR 16 13 83% 76.2 0.0
04 07:55 SE 6 16.09 Fair CLR 15 13 88% 76.2 0.0
04 07:35 Calm 16.09 Fair CLR 14 12 88% 76.2 0.0
04 06:55 Calm 16.09 Fair CLR 11 11 100% 76.17 0.0
04 06:35 Calm 16.09 Fair CLR 11 11 100% 76.15 0.0
04 06:15 Calm 16.09 Fair CLR 11 11 100% 76.15 0.0
04 05:55 Calm 16.09 Fair CLR 11 11 100% 76.15 0.0
04 05:35 Calm 16.09 Fair CLR 11 11 100% 76.15 0.0
04 05:15 Calm 16.09 Fair CLR 12 11 94% 76.17 0.0
04 04:55 Calm 16.09 Fair CLR 12 12 100% 76.17 0.0
04 04:15 Calm 16.09 Fair CLR 12 12 100% 76.2 0.0
04 03:55 Calm 16.09 Fair CLR 13 11 88% 76.2 0.0
04 03:35 Calm 16.09 Fair CLR 13 11 88% 76.2 0.0
04 03:15 Calm 16.09 Fair CLR 13 12 94% 76.23 0.0
04 02:55 Calm 16.09 Fair CLR 13 12 94% 76.23 0.0
04 02:35 Calm 16.09 Fair CLR 13 12 94% 76.25 0.0
04 02:15 Calm 16.09 Fair CLR 13 12 94% 76.28 0.0
04 01:55 Calm 16.09 Fair CLR 13 12 94% 76.28 0.0
04 01:35 Calm 16.09 Fair CLR 14 12 88% 76.3 0.0
04 01:15 Calm 16.09 Fair CLR 15 11 77% 76.33 0.0
04 00:55 Calm 16.09 Fair CLR 15 12 82% 76.33 0.0
04 00:35 Calm 16.09 Fair CLR 15 12 82% 76.33 0.0
04 00:15 Calm 16.09 Fair CLR 15 12 82% 76.35 0.0
03 23:55 S 6 16.09 Fair CLR 16 12 77% 76.33 0.0
03 23:35 S 7 16.09 Fair CLR 16 12 77% 76.33 0.0
03 23:15 S 7 16.09 Fair CLR 17 12 73% 76.35 0.0
03 22:55 S 9 16.09 Fair CLR 17 12 73% 76.35 0.0
03 22:35 S 9 16.09 Fair CLR 16 12 77% 76.35 0.0
03 22:15 S 7 16.09 Fair CLR 17 12 73% 76.33 0.0
03 21:55 S 7 16.09 Fair CLR 18 12 68% 76.33 0.0
03 21:35 Calm 16.09 Fair CLR 18 12 68% 76.33 0.0
03 21:15 Calm 16.09 Partly Cloudy SCT070 18 13 73% 76.33 0.0
03 20:55 Calm 16.09 Mostly Cloudy BKN070 18 13 73% 76.3 0.0
03 20:35 Calm 16.09 A Few Clouds FEW075 18 14 78% 76.28 0.0
03 20:15 Calm 16.09 A Few Clouds FEW075 19 13 68% 76.28 0.0
03 19:55 Calm 16.09 Fair CLR 21 14 64% 76.28 0.0
03 19:35 Calm 16.09 Fair CLR 21 16 73% 76.28 0.0
03 19:15 Calm 16.09 Fair CLR 22 13 57% 76.28 0.0
03 18:55 Calm 16.09 Fair CLR 24 11 44% 25 76.3 0.0
03 18:35 S 6 16.09 Fair CLR 25 11 42% 26 76.3 0.0
03 18:15 SW 7 16.09 Fair CLR 25 13 47% 26 76.3 0.0
03 17:55 S 9 16.09 Fair CLR 26 11 39% 26 76.3 0.0
03 17:35 Vrbl 7 16.09 Fair CLR 26 11 39% 26 76.33 0.0
03 17:15 S 7 16.09 Fair CLR 25 11 42% 26 76.35 0.0
03 16:55 SE 6 16.09 Fair CLR 26 10 37% 26 76.35 0.0
03 16:35 Calm 16.09 Fair CLR 25 11 42% 26 76.38 0.0
03 16:15 Vrbl 9 G 19 16.09 Fair CLR 27 12 39% 27 76.4 0.0
03 15:55 Vrbl 6 16.09 Fair CLR 26 10 37% 26 76.43 0.0
03 15:35 SW 9 16.09 Fair CLR 26 11 39% 26 76.45 0.0
03 15:15 Calm 16.09 Fair CLR 25 12 44% 26 76.48 0.0
03 14:55 Vrbl 7 16.09 Fair CLR 26 12 42% 26 76.5 0.0
03 14:35 W 13 16.09 Fair CLR 26 12 42% 26 76.53 0.0
03 14:15 W 7 16.09 Fair CLR 26 11 39% 26 76.56 0.0
03 13:55 W 11 16.09 Fair CLR 26 12 42% 26 76.58 0.0
03 13:35 Vrbl 9 G 20 16.09 Fair CLR 25 10 39% 26 76.61 0.0
03 13:15 W 15 16.09 Fair CLR 25 11 42% 26 76.63 0.0
03 12:55 Vrbl 7 14.48 Fair CLR 25 12 44% 26 76.66 0.0
03 12:35 Vrbl 7 G 19 16.09 Fair CLR 25 13 47% 26 76.68 0.0
03 12:15 Vrbl 11 G 20 16.09 Fair CLR 24 12 47% 25 76.68 0.0
03 11:55 W 15 16.09 Fair CLR 24 12 47% 25 76.71 0.0
03 11:35 SW 13 16.09 Fair CLR 24 12 47% 25 76.71 0.0
03 11:15 SW 13 16.09 Fair CLR 23 13 53% 76.73 0.0
03 10:55 SW 13 16.09 Fair CLR 23 13 53% 76.73 0.0
03 10:35 SW 11 16.09 Fair CLR 22 14 61% 76.73 0.0
03 10:15 Vrbl 7 16.09 Fair CLR 21 14 64% 76.73 0.0
03 09:55 S 7 16.09 Fair CLR 20 14 69% 76.71 0.0
03 09:35 S 7 16.09 Fair CLR 19 14 73% 76.71 0.0
03 09:15 Calm 16.09 Fair CLR 18 15 83% 76.71 0.0
03 08:55 Calm 16.09 Fair CLR 17 14 83% 76.71 0.0
03 08:35 Calm 16.09 Fair CLR 16 14 88% 76.68 0.0
03 08:15 Calm 16.09 Fair CLR 15 13 88% 76.68 0.0
03 07:55 Calm 16.09 Fair CLR 13 13 100% 76.66 0.0
03 07:35 Calm 14.48 Fair CLR 11 11 100% 76.66 0.0
03 07:15 Calm 16.09 Fair CLR 10 10 100% 76.66 0.0
03 06:55 Calm 12.87 Fair CLR 9 9 100% 76.63 0.0
03 06:35 Calm 12.87 Fair CLR 9 9 100% 76.63 0.0
03 06:15 Calm 8.05 Fog/Mist CLR 9 9 100% 76.61 0.0
03 05:35 Calm 16.09 Fair CLR 10 10 100% 76.56 0.0
03 04:55 Calm 14.48 Fair CLR 10 10 100% 76.56 0.0
03 04:35 Calm 14.48 Fair CLR 10 10 100% 76.53 0.0
03 04:15 Calm 14.48 Fair CLR 10 10 100% 76.53 0.0
03 03:55 Calm 16.09 Fair CLR 10 10 100% 76.53 0.0
03 03:35 Calm 14.48 Fair CLR 10 10 100% 76.56 0.0
03 03:15 Calm 16.09 Fair CLR 10 10 100% 76.56 0.0
03 02:55 Calm 14.48 Fair CLR 10 10 100% 76.56 0.0
03 02:35 Calm 16.09 Fair CLR 10 10 100% 76.58 0.0
03 02:15 Calm 14.48 Fair CLR 10 10 100% 76.58 0.0
03 01:55 Calm 14.48 Fair CLR 10 10 100% 76.58 0.0
03 01:35 Calm 9.66 Fog/Mist CLR 10 10 100% 76.58 0.0
03 01:15 Calm 11.27 Fair CLR 10 10 100% 76.58 0.0
03 00:55 Calm 16.09 Fair CLR 11 11 100% 76.58 0.0
03 00:35 Calm 16.09 Fair CLR 11 11 100% 76.58 0.0
03 00:15 Calm 16.09 Fair CLR 11 11 100% 76.56 0.0
02 23:55 Calm 16.09 Fair CLR 12 12 100% 76.56 0.0
02 23:15 Calm 16.09 Fair CLR 12 12 100% 76.56 0.0
02 22:55 Calm 16.09 Fair CLR 13 13 100% 76.56 0.0
02 22:35 Calm 16.09 Fair CLR 13 13 100% 76.53 0.0
02 22:15 Calm 16.09 Fair CLR 13 13 100% 76.56 0.0
02 21:55 Calm 16.09 Fair CLR 13 13 100% 76.53 0.0
02 21:35 Calm 16.09 Fair CLR 14 14 100% 76.5 0.0
02 21:15 Calm 16.09 Fair CLR 14 14 100% 76.5 0.0
02 20:55 Calm 16.09 Fair CLR 15 14 94% 76.48 0.0
02 20:35 Calm 16.09 Fair CLR 16 13 83% 76.48 0.0
Date Time (cdt) Wind (kph) Vis. (km) Weather Sky Cond. Air Dwpt Max. Min. Relative Humidity Wind Chill (°C) Heat Index (°C) altimeter (cm) sea level (mb) 1 hr 3 hr 6 hr
6 hour
Temperature (ºC) Pressure Precipitation (cm)